Time;durP1;ratioP1;P1;durP2;ratioP2;P2;SDS_P1;SDS_P2;PMS_P1;PMS_P2;Temp;Humidity;BMP_temperature;BMP_pressure;BME280_temperature;BME280_humidity;BME280_pressure;Samples;Min_cycle;Max_cycle;Signal;HPM_P1;HPM_P2
2022/03/26 00:01:45;;;;;;;118.07;62.83;;;4.30;99.90;;;;;;5098331;28;20073;-74
2022/03/26 00:04:11;;;;;;;112.35;59.53;;;4.30;99.90;;;;;;5117124;28;20039;-75
2022/03/26 00:06:38;;;;;;;126.68;69.00;;;4.30;99.90;;;;;;5098066;28;20165;-75
2022/03/26 00:09:04;;;;;;;135.95;67.63;;;4.30;99.90;;;;;;5098127;28;20043;-75
2022/03/26 00:11:31;;;;;;;117.60;65.05;;;4.30;99.90;;;;;;5081598;28;20040;-74
2022/03/26 00:13:57;;;;;;;120.22;63.05;;;4.20;99.90;;;;;;5116223;28;20115;-74
2022/03/26 00:16:22;;;;;;;133.60;69.43;;;4.20;99.90;;;;;;5098002;28;20567;-74
2022/03/26 00:18:48;;;;;;;134.20;67.57;;;4.20;99.90;;;;;;5116708;28;20054;-75
2022/03/26 00:21:14;;;;;;;124.03;66.10;;;4.20;99.90;;;;;;5097592;28;20112;-74
2022/03/26 00:23:40;;;;;;;124.63;65.28;;;4.20;99.90;;;;;;5116393;28;20044;-75
2022/03/26 00:26:07;;;;;;;146.20;71.80;;;4.20;99.90;;;;;;5098287;28;20097;-75
2022/03/26 00:28:36;;;;;;;126.82;68.00;;;4.20;99.90;;;;;;5116095;28;20384;-74
2022/03/26 00:31:01;;;;;;;121.07;64.68;;;4.30;99.90;;;;;;5097705;28;20082;-74
2022/03/26 00:33:28;;;;;;;115.75;59.80;;;4.30;99.90;;;;;;5098498;28;20085;-75
2022/03/26 00:35:54;;;;;;;143.75;72.60;;;4.30;99.90;;;;;;5097846;28;20043;-75
2022/03/26 00:38:20;;;;;;;137.25;66.63;;;4.20;99.90;;;;;;5097872;28;20077;-74
2022/03/26 00:40:46;;;;;;;120.20;62.97;;;4.20;99.90;;;;;;5096582;28;20055;-74
2022/03/26 00:43:11;;;;;;;132.63;67.50;;;4.10;99.90;;;;;;5097571;28;20054;-74
2022/03/26 00:45:37;;;;;;;125.88;63.72;;;4.10;99.90;;;;;;5115972;28;20160;-74
2022/03/26 00:48:03;;;;;;;120.20;62.20;;;4.10;99.90;;;;;;5097794;28;20050;-74
2022/03/26 00:50:29;;;;;;;129.60;65.70;;;4.10;99.90;;;;;;5088717;28;20131;-75
2022/03/26 00:52:55;;;;;;;131.88;66.15;;;4.00;99.90;;;;;;5057595;28;20436;-74
2022/03/26 00:55:21;;;;;;;124.68;62.17;;;4.00;99.90;;;;;;5081839;28;20035;-74
2022/03/26 00:57:47;;;;;;;125.00;65.00;;;3.90;99.90;;;;;;5097549;28;20122;-74
2022/03/26 01:00:14;;;;;;;136.80;67.00;;;3.90;99.90;;;;;;5095531;28;20135;-74
2022/03/26 01:02:40;;;;;;;144.00;69.85;;;3.80;99.90;;;;;;5076561;28;20111;-74
2022/03/26 01:05:06;;;;;;;122.60;62.22;;;3.90;99.90;;;;;;5099993;28;20127;-74
2022/03/26 01:07:32;;;;;;;140.98;70.25;;;3.90;99.90;;;;;;5097111;28;20560;-74
2022/03/26 01:09:58;;;;;;;126.40;64.95;;;3.80;99.90;;;;;;5096514;28;20451;-74
2022/03/26 01:12:25;;;;;;;116.60;58.20;;;3.80;99.90;;;;;;5096990;28;20093;-74
2022/03/26 01:14:52;;;;;;;116.28;59.50;;;3.80;99.90;;;;;;5076467;28;20051;-74
2022/03/26 01:17:19;;;;;;;119.18;58.17;;;3.70;99.90;;;;;;5074348;28;20101;-74
2022/03/26 01:19:46;;;;;;;117.15;57.22;;;3.60;99.90;;;;;;5088621;28;20074;-74
2022/03/26 01:22:12;;;;;;;126.68;63.80;;;3.60;99.90;;;;;;5115492;28;20178;-74
2022/03/26 01:24:38;;;;;;;153.20;67.38;;;3.60;99.90;;;;;;5082114;28;20059;-74
2022/03/26 01:27:04;;;;;;;148.30;69.53;;;3.50;99.90;;;;;;5094718;28;20032;-75
2022/03/26 01:29:30;;;;;;;137.43;65.15;;;3.50;99.90;;;;;;5091548;28;20048;-75
2022/03/26 01:31:55;;;;;;;146.68;67.57;;;3.50;99.90;;;;;;5106736;28;20387;-74
2022/03/26 01:34:24;;;;;;;136.07;67.60;;;3.50;99.90;;;;;;5094768;28;20044;-74
2022/03/26 01:36:50;;;;;;;161.02;74.60;;;3.50;99.90;;;;;;5100250;28;20096;-74
2022/03/26 01:39:17;;;;;;;140.30;69.43;;;3.50;99.90;;;;;;5081254;28;20051;-74
2022/03/26 01:41:43;;;;;;;146.38;73.18;;;3.50;99.90;;;;;;5081035;28;20090;-75
2022/03/26 01:44:13;;;;;;;152.68;73.38;;;3.50;99.90;;;;;;5114525;28;20067;-74
2022/03/26 01:46:51;;;;;;;167.00;75.05;;;3.50;99.90;;;;;;5092801;28;20445;-74
2022/03/26 01:49:17;;;;;;;160.48;76.53;;;3.50;99.90;;;;;;5096243;28;20032;-75
2022/03/26 01:51:43;;;;;;;188.45;78.47;;;3.50;99.90;;;;;;5078244;28;20051;-74
2022/03/26 01:54:10;;;;;;;169.10;77.57;;;3.50;99.90;;;;;;5114764;28;20371;-74
2022/03/26 01:56:38;;;;;;;162.82;74.28;;;3.50;99.90;;;;;;5079181;28;20043;-74
2022/03/26 01:59:05;;;;;;;191.52;82.53;;;3.50;99.90;;;;;;5095818;28;20104;-74
2022/03/26 02:01:33;;;;;;;191.20;80.18;;;3.50;99.90;;;;;;5096086;28;20114;-74
2022/03/26 02:04:00;;;;;;;143.18;70.57;;;3.50;99.90;;;;;;5096224;28;20048;-74
2022/03/26 02:06:34;;;;;;;147.18;71.60;;;3.50;99.90;;;;;;5114099;28;20032;-75
2022/03/26 02:09:05;;;;;;;148.50;70.43;;;3.50;99.90;;;;;;5113980;28;20039;-74
2022/03/26 02:11:36;;;;;;;146.55;72.10;;;3.40;99.90;;;;;;5096578;28;20382;-74
2022/03/26 02:14:03;;;;;;;162.15;74.10;;;3.40;99.90;;;;;;5113880;28;20058;-74
2022/03/26 02:16:31;;;;;;;181.55;80.53;;;3.40;99.90;;;;;;5079203;28;20046;-74
2022/03/26 02:18:57;;;;;;;179.50;76.15;;;3.40;99.90;;;;;;5114356;28;20040;-74
2022/03/26 02:21:24;;;;;;;171.20;78.28;;;3.40;99.90;;;;;;5113938;28;20044;-74
2022/03/26 02:23:52;;;;;;;233.38;88.68;;;3.40;99.90;;;;;;5114146;28;20423;-74
2022/03/26 02:26:20;;;;;;;261.75;87.03;;;3.30;99.90;;;;;;5113627;28;20493;-74
2022/03/26 02:28:46;;;;;;;207.23;78.57;;;3.40;99.90;;;;;;5095523;28;20047;-74
2022/03/26 02:31:13;;;;;;;156.15;65.55;;;3.30;99.90;;;;;;5096301;28;20392;-74
2022/03/26 02:33:39;;;;;;;173.65;69.75;;;3.30;99.90;;;;;;5094885;28;20047;-74
2022/03/26 02:36:06;;;;;;;164.20;66.38;;;3.20;99.90;;;;;;5113845;28;20118;-74
2022/03/26 02:38:33;;;;;;;181.82;73.72;;;3.20;99.90;;;;;;5095698;28;20036;-74
2022/03/26 02:40:59;;;;;;;163.05;70.93;;;3.10;99.90;;;;;;5095319;28;20039;-74
2022/03/26 02:43:25;;;;;;;148.20;64.75;;;3.10;99.90;;;;;;5095356;28;20394;-74
2022/03/26 02:45:51;;;;;;;170.45;67.07;;;3.00;99.90;;;;;;5114131;28;20051;-74
2022/03/26 02:48:16;;;;;;;198.93;78.57;;;3.00;99.90;;;;;;5094963;28;20099;-74
2022/03/26 02:50:43;;;;;;;173.13;73.90;;;3.00;99.90;;;;;;5095299;28;20052;-74
2022/03/26 02:53:10;;;;;;;170.27;70.43;;;3.00;99.90;;;;;;5095525;28;20044;-74
2022/03/26 02:55:36;;;;;;;140.50;65.85;;;3.00;99.90;;;;;;5094787;28;20048;-74
2022/03/26 02:58:03;;;;;;;181.88;70.18;;;2.90;99.90;;;;;;5113494;28;20039;-74
2022/03/26 03:00:28;;;;;;;175.52;76.43;;;2.90;99.90;;;;;;5095568;28;20048;-74
2022/03/26 03:02:54;;;;;;;173.93;73.50;;;2.90;99.90;;;;;;5114242;28;20035;-74
2022/03/26 03:05:20;;;;;;;188.80;77.00;;;2.90;99.90;;;;;;5120063;28;20040;-74
2022/03/26 03:07:47;;;;;;;194.32;83.70;;;2.80;99.90;;;;;;5120828;28;20368;-74
2022/03/26 03:10:15;;;;;;;167.25;74.72;;;2.90;99.90;;;;;;5119756;28;20051;-74
2022/03/26 03:12:45;;;;;;;189.88;82.28;;;2.90;99.90;;;;;;5120262;28;20031;-75
2022/03/26 03:15:12;;;;;;;177.23;79.63;;;2.90;99.90;;;;;;5120630;28;20053;-74
2022/03/26 03:17:38;;;;;;;153.05;69.90;;;2.90;99.90;;;;;;5080959;28;20123;-74
2022/03/26 03:20:06;;;;;;;155.45;67.93;;;2.90;99.90;;;;;;5065233;28;20047;-74
2022/03/26 03:22:32;;;;;;;172.98;72.97;;;2.90;99.90;;;;;;5100340;28;20108;-74
2022/03/26 03:24:58;;;;;;;173.77;72.90;;;2.90;99.90;;;;;;5120418;28;20043;-74
2022/03/26 03:27:24;;;;;;;148.27;65.55;;;2.80;99.90;;;;;;5101986;28;20518;-74
2022/03/26 03:29:50;;;;;;;157.45;67.78;;;2.80;99.90;;;;;;5119856;28;20043;-74
2022/03/26 03:32:16;;;;;;;157.43;71.78;;;2.70;99.90;;;;;;5101849;28;20043;-74
2022/03/26 03:34:42;;;;;;;169.90;75.30;;;2.70;99.90;;;;;;5120492;28;20382;-74
2022/03/26 03:37:08;;;;;;;190.95;75.57;;;2.70;99.90;;;;;;5119649;28;20122;-74
2022/03/26 03:39:34;;;;;;;195.45;77.47;;;2.70;99.90;;;;;;5119917;28;20127;-74
2022/03/26 03:41:59;;;;;;;173.77;75.90;;;2.70;99.90;;;;;;5120215;28;20067;-74
2022/03/26 03:44:26;;;;;;;178.75;78.40;;;2.70;99.90;;;;;;5084162;28;20090;-74
2022/03/26 03:46:52;;;;;;;148.43;67.70;;;2.70;99.90;;;;;;5119888;28;20398;-74
2022/03/26 03:49:18;;;;;;;168.40;65.30;;;2.70;99.90;;;;;;5102171;28;20398;-74
2022/03/26 03:51:44;;;;;;;169.93;64.90;;;2.70;99.90;;;;;;5119803;28;20051;-74
2022/03/26 03:54:10;;;;;;;169.85;64.57;;;2.70;99.90;;;;;;5119799;28;20047;-74
2022/03/26 03:56:36;;;;;;;190.48;74.43;;;2.60;99.90;;;;;;5120180;28;20502;-74
2022/03/26 03:59:03;;;;;;;197.35;74.50;;;2.50;99.90;;;;;;5100912;28;20039;-74
2022/03/26 04:01:28;;;;;;;203.27;76.90;;;2.50;99.90;;;;;;5101651;28;20066;-74
2022/03/26 04:03:54;;;;;;;188.80;76.47;;;2.50;99.90;;;;;;5101821;28;20501;-74
2022/03/26 04:06:20;;;;;;;166.35;72.38;;;2.50;99.90;;;;;;5101199;28;20398;-74
2022/03/26 04:08:46;;;;;;;194.98;81.22;;;2.40;99.90;;;;;;5119564;28;20042;-74
2022/03/26 04:11:11;;;;;;;219.05;85.25;;;2.40;99.90;;;;;;5101841;28;20043;-74
2022/03/26 04:13:38;;;;;;;249.30;94.97;;;2.50;99.90;;;;;;5101323;28;20036;-74
2022/03/26 04:16:05;;;;;;;203.95;83.18;;;2.50;99.90;;;;;;5097517;28;20083;-74
2022/03/26 04:18:31;;;;;;;165.07;73.60;;;2.60;99.90;;;;;;5116654;28;20039;-74
2022/03/26 04:20:57;;;;;;;179.43;79.82;;;2.60;99.90;;;;;;5097607;28;20360;-74
2022/03/26 04:23:24;;;;;;;186.68;77.10;;;2.60;99.90;;;;;;5098735;28;20050;-74
2022/03/26 04:25:49;;;;;;;211.38;85.60;;;2.60;99.90;;;;;;5097790;28;20429;-74
2022/03/26 04:28:15;;;;;;;215.88;84.85;;;2.60;99.90;;;;;;5098157;28;20043;-74
2022/03/26 04:30:42;;;;;;;146.63;65.40;;;2.60;99.90;;;;;;5116194;28;20038;-74
2022/03/26 04:33:07;;;;;;;227.65;86.63;;;2.60;99.90;;;;;;5097936;28;20047;-74
2022/03/26 04:35:34;;;;;;;226.60;92.35;;;2.50;99.90;;;;;;5116126;28;20116;-74
2022/03/26 04:38:00;;;;;;;209.15;83.28;;;2.50;99.90;;;;;;5097926;28;20479;-74
2022/03/26 04:40:27;;;;;;;176.63;69.10;;;2.50;99.90;;;;;;5097277;28;20172;-74
2022/03/26 04:42:53;;;;;;;174.52;68.47;;;2.50;99.90;;;;;;5097922;28;20444;-74
2022/03/26 04:45:19;;;;;;;168.07;66.85;;;2.40;99.90;;;;;;5098028;28;20070;-74
2022/03/26 04:47:45;;;;;;;162.70;64.63;;;2.40;99.90;;;;;;5097290;28;20475;-74
2022/03/26 04:50:11;;;;;;;135.43;64.28;;;2.30;99.90;;;;;;5093949;28;20051;-74
2022/03/26 04:52:38;;;;;;;145.07;64.03;;;2.20;99.90;;;;;;5061004;28;20044;-74
2022/03/26 04:55:08;;;;;;;261.67;83.80;;;2.20;99.90;;;;;;5081811;28;20495;-74
2022/03/26 04:57:41;;;;;;;175.55;73.38;;;2.20;99.90;;;;;;5080773;28;20127;-74
2022/03/26 05:00:08;;;;;;;365.23;102.72;;;2.20;99.90;;;;;;5097631;28;20044;-74
2022/03/26 05:02:37;;;;;;;201.02;85.57;;;2.20;99.90;;;;;;5115308;28;20122;-74
2022/03/26 05:05:03;;;;;;;143.40;61.92;;;2.30;99.90;;;;;;5093730;28;20621;-74
2022/03/26 05:07:48;;;;;;;267.33;89.90;;;2.30;99.90;;;;;;5096115;28;20032;-74
2022/03/26 05:10:21;;;;;;;326.00;96.00;;;2.30;99.90;;;;;;5115516;28;20047;-74
2022/03/26 05:12:48;;;;;;;229.88;83.28;;;2.30;99.90;;;;;;5115308;28;20051;-74
2022/03/26 05:15:15;;;;;;;279.38;93.28;;;2.30;99.90;;;;;;5114872;28;20301;-74
2022/03/26 05:17:41;;;;;;;255.07;95.28;;;2.30;99.90;;;;;;5115006;28;20046;-74
2022/03/26 05:20:08;;;;;;;266.45;95.20;;;2.40;99.90;;;;;;5097389;28;20048;-74
2022/03/26 05:22:35;;;;;;;207.98;79.90;;;2.40;99.90;;;;;;5114923;28;20061;-74
2022/03/26 05:25:01;;;;;;;228.40;85.50;;;2.40;99.90;;;;;;5093228;28;20494;-74
2022/03/26 05:27:27;;;;;;;287.00;95.80;;;2.40;99.90;;;;;;5094845;28;20059;-74
2022/03/26 05:29:54;;;;;;;247.40;91.15;;;2.40;99.90;;;;;;5113963;28;20039;-74
2022/03/26 05:32:19;;;;;;;225.07;86.85;;;2.40;99.90;;;;;;5115021;28;20502;-74
2022/03/26 05:34:45;;;;;;;214.13;74.22;;;2.50;99.90;;;;;;5093778;28;20052;-74
2022/03/26 05:37:12;;;;;;;208.02;79.95;;;2.50;99.90;;;;;;5094265;28;20483;-74
2022/03/26 05:39:38;;;;;;;202.95;77.53;;;2.40;99.90;;;;;;5110214;28;20391;-74
2022/03/26 05:42:06;;;;;;;181.90;74.18;;;2.40;99.90;;;;;;5115327;28;20126;-74
2022/03/26 05:44:31;;;;;;;183.30;75.03;;;2.40;99.90;;;;;;5096007;28;20054;-74
2022/03/26 05:46:57;;;;;;;222.15;74.68;;;2.30;99.90;;;;;;5096606;28;20483;-74
2022/03/26 05:49:24;;;;;;;187.40;73.35;;;2.30;99.90;;;;;;5095982;28;20043;-74
2022/03/26 05:51:50;;;;;;;178.35;71.93;;;2.30;99.90;;;;;;5114234;28;20048;-73
2022/03/26 05:54:16;;;;;;;181.65;74.43;;;2.30;99.90;;;;;;5092856;28;20104;-74
2022/03/26 05:56:51;;;;;;;396.35;99.15;;;2.30;99.90;;;;;;5094666;28;20044;-74
2022/03/26 05:59:23;;;;;;;240.48;80.30;;;2.30;99.90;;;;;;5104525;28;20486;-74
2022/03/26 06:01:53;;;;;;;184.70;74.93;;;2.30;99.90;;;;;;5114952;28;20044;-74
2022/03/26 06:04:19;;;;;;;194.45;73.70;;;2.40;99.90;;;;;;5092610;28;20372;-74
2022/03/26 06:06:47;;;;;;;180.63;75.75;;;2.40;99.90;;;;;;5075859;28;20044;-74
2022/03/26 06:09:13;;;;;;;174.27;73.57;;;2.50;99.90;;;;;;5085597;28;20039;-74
2022/03/26 06:11:39;;;;;;;390.25;99.25;;;2.50;99.90;;;;;;5096025;28;20092;-74
2022/03/26 06:14:06;;;;;;;217.05;81.05;;;2.60;99.90;;;;;;5114445;28;20089;-74
2022/03/26 06:16:32;;;;;;;187.02;78.20;;;2.60;99.90;;;;;;5113129;28;20460;-77
2022/03/26 06:18:58;;;;;;;201.38;76.90;;;2.70;99.90;;;;;;5095361;28;20069;-76
2022/03/26 06:21:24;;;;;;;217.55;84.07;;;2.70;99.90;;;;;;5095862;28;20050;-76
2022/03/26 06:23:50;;;;;;;211.98;83.28;;;2.70;99.90;;;;;;5096112;28;20116;-75
2022/03/26 06:26:16;;;;;;;211.65;81.57;;;2.80;99.90;;;;;;5113035;28;20167;-74
2022/03/26 06:28:42;;;;;;;163.18;72.65;;;2.90;99.90;;;;;;5113997;28;20036;-74
2022/03/26 06:31:08;;;;;;;189.23;75.43;;;3.00;99.90;;;;;;5095959;28;20047;-74
2022/03/26 06:33:35;;;;;;;171.73;72.97;;;3.00;99.90;;;;;;5113438;28;20118;-74
2022/03/26 06:36:01;;;;;;;225.35;88.70;;;3.10;99.90;;;;;;5113648;28;20462;-74
2022/03/26 06:38:31;;;;;;;221.82;85.53;;;3.20;99.90;;;;;;5092003;28;20087;-74
2022/03/26 06:40:58;;;;;;;279.70;96.68;;;3.30;99.90;;;;;;5075161;28;20052;-74
2022/03/26 06:43:24;;;;;;;203.25;78.55;;;3.40;99.90;;;;;;5093670;28;20050;-74
2022/03/26 06:45:51;;;;;;;228.23;79.22;;;3.50;99.90;;;;;;5114029;28;20403;-74
2022/03/26 06:48:17;;;;;;;209.38;77.78;;;3.60;99.90;;;;;;5091096;28;20047;-74
2022/03/26 06:50:42;;;;;;;204.55;78.57;;;3.70;99.90;;;;;;5093353;28;20064;-74
2022/03/26 06:53:08;;;;;;;290.88;90.47;;;3.80;99.90;;;;;;5108762;28;20086;-74
2022/03/26 06:55:34;;;;;;;313.83;102.53;;;3.90;99.90;;;;;;5113208;28;20130;-74
2022/03/26 06:58:00;;;;;;;258.58;97.25;;;4.00;99.90;;;;;;5113365;28;20044;-74
2022/03/26 07:00:26;;;;;;;293.20;100.40;;;4.20;99.90;;;;;;5076791;28;20032;-73
2022/03/26 07:02:51;;;;;;;280.23;96.45;;;4.30;99.90;;;;;;5094788;28;20027;-73
2022/03/26 07:05:17;;;;;;;243.27;95.50;;;4.50;99.90;;;;;;5113671;28;20410;-74
2022/03/26 07:07:43;;;;;;;235.70;91.70;;;4.70;99.90;;;;;;5112963;28;20052;-74
2022/03/26 07:10:09;;;;;;;236.52;98.53;;;4.80;99.90;;;;;;5093144;28;20048;-75
2022/03/26 07:12:35;;;;;;;234.80;97.55;;;5.00;99.90;;;;;;5093539;28;20537;-75
2022/03/26 07:15:02;;;;;;;222.48;96.85;;;5.20;99.90;;;;;;5092792;28;20039;-75
2022/03/26 07:17:28;;;;;;;201.85;88.35;;;5.40;99.90;;;;;;5093094;28;20044;-75
2022/03/26 07:19:54;;;;;;;186.88;89.72;;;5.70;99.90;;;;;;5093206;28;20479;-75
2022/03/26 07:22:20;;;;;;;180.68;88.68;;;6.00;99.90;;;;;;5113185;28;20039;-75
2022/03/26 07:24:45;;;;;;;173.77;84.45;;;6.20;99.90;;;;;;5095181;28;20047;-75
2022/03/26 07:27:11;;;;;;;166.82;83.43;;;6.40;99.90;;;;;;5095057;28;20471;-75
2022/03/26 07:29:40;;;;;;;161.98;78.45;;;6.50;99.90;;;;;;5077940;28;20108;-74
2022/03/26 07:32:07;;;;;;;165.00;83.47;;;6.60;99.90;;;;;;5093354;28;20054;-74
2022/03/26 07:34:33;;;;;;;161.60;79.25;;;6.70;99.90;;;;;;5080367;28;20047;-75
2022/03/26 07:37:00;;;;;;;159.90;80.05;;;6.80;99.90;;;;;;5077716;28;20051;-74
2022/03/26 07:39:27;;;;;;;160.00;79.72;;;6.90;99.90;;;;;;5112124;28;20044;-75
2022/03/26 07:41:53;;;;;;;151.88;78.45;;;7.00;99.90;;;;;;5113549;28;20526;-74
2022/03/26 07:44:19;;;;;;;158.43;78.40;;;7.20;99.90;;;;;;5111947;28;20398;-74
2022/03/26 07:46:45;;;;;;;153.45;78.03;;;7.30;99.90;;;;;;5078037;28;20047;-74
2022/03/26 07:49:11;;;;;;;144.57;73.00;;;7.50;99.90;;;;;;5113126;28;20035;-75
2022/03/26 07:51:37;;;;;;;133.10;68.78;;;7.60;99.90;;;;;;5104403;28;20415;-74
2022/03/26 07:54:03;;;;;;;124.35;67.07;;;7.80;99.90;;;;;;5081819;28;20051;-74
2022/03/26 07:56:29;;;;;;;126.38;64.65;;;8.00;99.90;;;;;;5099309;28;20135;-74
2022/03/26 07:58:56;;;;;;;123.85;65.80;;;8.10;99.90;;;;;;5116314;28;20493;-74
2022/03/26 08:01:23;;;;;;;104.53;57.33;;;8.40;99.90;;;;;;5117043;28;20055;-74
2022/03/26 08:03:53;;;;;;;112.22;57.83;;;8.60;99.90;;;;;;5098498;28;20512;-74
2022/03/26 08:06:21;;;;;;;104.53;58.67;;;8.70;99.90;;;;;;5098441;28;20085;-74
2022/03/26 08:08:47;;;;;;;106.05;56.13;;;8.90;99.90;;;;;;5117017;28;20054;-74
2022/03/26 08:11:13;;;;;;;112.05;59.42;;;9.00;99.90;;;;;;5098434;28;20043;-74
2022/03/26 08:13:39;;;;;;;104.18;55.30;;;9.20;99.90;;;;;;5098304;28;20040;-74
2022/03/26 08:16:07;;;;;;;97.78;53.25;;;9.30;99.90;;;;;;5117024;28;20047;-74
2022/03/26 08:18:33;;;;;;;83.95;49.05;;;9.50;99.90;;;;;;5098143;28;20127;-74
2022/03/26 08:20:59;;;;;;;86.88;48.92;;;9.60;99.90;;;;;;5116628;28;20048;-74
2022/03/26 08:23:24;;;;;;;83.28;49.88;;;9.80;99.90;;;;;;5116710;28;20054;-74
2022/03/26 08:28:35;;;;;;;81.22;47.70;;;10.20;99.90;;;;;;5116336;28;20040;-74
2022/03/26 08:31:00;;;;;;;80.85;45.67;;;10.30;99.90;;;;;;5098087;28;20067;-74
2022/03/26 08:33:26;;;;;;;85.28;47.95;;;10.40;99.90;;;;;;5097299;28;20047;-74
2022/03/26 08:35:52;;;;;;;87.80;49.72;;;10.50;99.90;;;;;;5116616;28;20050;-74
2022/03/26 08:38:18;;;;;;;86.32;48.72;;;10.60;99.90;;;;;;5098486;28;20444;-74
2022/03/26 08:40:44;;;;;;;82.85;47.50;;;10.70;99.90;;;;;;5097141;28;20157;-74
2022/03/26 08:43:10;;;;;;;80.68;47.75;;;10.80;99.90;;;;;;5116459;28;20514;-74
2022/03/26 08:45:36;;;;;;;82.72;46.70;;;10.90;99.90;;;;;;5097963;28;20520;-74
2022/03/26 08:48:03;;;;;;;79.57;42.83;;;11.10;99.90;;;;;;5097464;28;20048;-74
2022/03/26 08:50:29;;;;;;;77.90;42.17;;;11.20;99.90;;;;;;5115988;28;20091;-74
2022/03/26 08:52:56;;;;;;;74.90;42.75;;;11.30;99.90;;;;;;5097569;28;20406;-74
2022/03/26 08:55:23;;;;;;;79.65;45.03;;;11.40;99.90;;;;;;5115820;28;20043;-74
2022/03/26 08:57:49;;;;;;;67.00;39.63;;;11.60;99.90;;;;;;5097757;28;20475;-74
2022/03/26 09:00:16;;;;;;;68.07;39.80;;;11.70;99.90;;;;;;5115395;28;20047;-74
2022/03/26 09:02:42;;;;;;;76.13;41.88;;;11.80;99.90;;;;;;5097366;28;20051;-74
2022/03/26 09:05:08;;;;;;;64.03;38.83;;;11.80;99.90;;;;;;5097729;28;20532;-74
2022/03/26 09:07:35;;;;;;;75.05;44.72;;;11.90;99.90;;;;;;5115343;28;20036;-74
2022/03/26 09:10:02;;;;;;;75.05;45.13;;;12.00;99.90;;;;;;5115549;28;20123;-74
2022/03/26 09:12:28;;;;;;;77.03;45.22;;;12.10;99.90;;;;;;5115691;28;20470;-74
2022/03/26 09:14:54;;;;;;;69.10;43.38;;;12.30;99.90;;;;;;5115009;28;20135;-74
2022/03/26 09:17:20;;;;;;;68.63;42.33;;;12.30;99.90;;;;;;5097427;28;20055;-74
2022/03/26 09:19:45;;;;;;;63.15;36.00;;;12.40;99.90;;;;;;5097523;28;20433;-74
2022/03/26 09:22:11;;;;;;;63.83;36.17;;;12.50;99.90;;;;;;5096676;28;20451;-74
2022/03/26 09:24:37;;;;;;;65.55;37.92;;;12.60;99.90;;;;;;5096891;28;20047;-74
2022/03/26 09:27:03;;;;;;;54.60;35.22;;;12.70;99.90;;;;;;5115591;28;20040;-74
2022/03/26 09:29:28;;;;;;;54.20;33.33;;;12.70;99.90;;;;;;5096723;28;20047;-74
2022/03/26 09:31:55;;;;;;;58.05;31.95;;;12.80;99.90;;;;;;5096944;28;20043;-74
2022/03/26 09:34:21;;;;;;;57.85;35.78;;;12.90;99.90;;;;;;5115312;28;20384;-73
2022/03/26 09:36:47;;;;;;;47.88;28.90;;;13.00;99.90;;;;;;5079252;28;20066;-74
2022/03/26 09:39:13;;;;;;;49.80;29.00;;;13.10;99.90;;;;;;5115264;28;20095;-73
2022/03/26 09:41:40;;;;;;;42.65;27.55;;;13.20;99.90;;;;;;5115356;28;20050;-73
2022/03/26 09:44:06;;;;;;;42.00;27.33;;;13.20;99.90;;;;;;5114191;28;20043;-74
2022/03/26 09:46:35;;;;;;;45.63;31.08;;;13.20;99.90;;;;;;5096913;28;20126;-74
2022/03/26 09:49:03;;;;;;;45.53;29.85;;;13.30;99.90;;;;;;5096699;28;20127;-74
2022/03/26 09:51:29;;;;;;;44.28;29.63;;;13.30;99.90;;;;;;5113866;28;20122;-74
2022/03/26 09:53:56;;;;;;;40.25;25.52;;;13.50;99.90;;;;;;5114863;28;20134;-73
2022/03/26 09:56:23;;;;;;;37.47;24.27;;;13.50;99.90;;;;;;5114202;28;20052;-73
2022/03/26 09:58:53;;;;;;;42.17;27.83;;;13.70;99.90;;;;;;5096676;28;20127;-73
2022/03/26 10:01:20;;;;;;;39.15;25.02;;;13.80;99.90;;;;;;5114829;28;20040;-73
2022/03/26 10:04:12;;;;;;;34.38;21.33;;;13.90;99.90;;;;;;5114237;28;20044;-74
2022/03/26 10:06:47;;;;;;;38.17;24.05;;;14.00;99.90;;;;;;5096190;28;20051;-73
2022/03/26 10:09:13;;;;;;;;;;;14.00;99.90;;;;;;5115351;28;20123;-73
2022/03/26 10:11:41;;;;;;;30.10;20.90;;;14.10;99.90;;;;;;5095546;28;19967;-73
2022/03/26 10:14:06;;;;;;;35.95;22.48;;;14.30;99.90;;;;;;5095301;28;20042;-73
2022/03/26 10:16:32;;;;;;;35.03;21.30;;;14.40;99.90;;;;;;5096568;28;20039;-73
2022/03/26 10:18:59;;;;;;;26.92;17.60;;;14.40;99.90;;;;;;5078351;28;20102;-73
2022/03/26 10:21:25;;;;;;;30.33;18.65;;;14.50;99.90;;;;;;5096515;28;20044;-73
2022/03/26 10:23:52;;;;;;;33.25;18.38;;;14.60;99.90;;;;;;5114419;28;20512;-73
2022/03/26 10:26:25;;;;;;;28.73;19.00;;;14.70;99.90;;;;;;5113606;28;20138;-73
2022/03/26 10:28:53;;;;;;;19.63;14.38;;;14.80;99.90;;;;;;5096298;28;20039;-74
2022/03/26 10:34:10;;;;;;;18.98;10.55;;;15.10;99.90;;;;;;5113855;28;20509;-73
2022/03/26 10:36:41;;;;;;;13.35;9.85;;;15.20;99.90;;;;;;5114220;28;20574;-74
2022/03/26 10:39:14;;;;;;;18.92;10.57;;;15.30;99.90;;;;;;5095358;28;20135;-73
2022/03/26 10:41:40;;;;;;;16.90;11.45;;;15.40;99.90;;;;;;5095456;28;20138;-73
2022/03/26 10:44:14;;;;;;;20.30;11.65;;;15.40;99.90;;;;;;5114279;28;20118;-73
2022/03/26 10:46:50;;;;;;;18.13;11.20;;;15.40;99.90;;;;;;5113246;28;20104;-73
2022/03/26 10:49:37;;;;;;;18.05;11.07;;;15.40;99.90;;;;;;5113842;28;20131;-74
2022/03/26 10:52:16;;;;;;;17.90;9.57;;;15.40;99.90;;;;;;5095918;28;20054;-74
2022/03/26 10:54:42;;;;;;;16.60;9.30;;;15.40;99.90;;;;;;5094957;28;20115;-73
2022/03/26 10:57:08;;;;;;;14.60;9.25;;;15.50;99.90;;;;;;5114130;28;20390;-73
2022/03/26 10:59:35;;;;;;;16.88;10.43;;;15.50;99.90;;;;;;5078494;28;20036;-73
2022/03/26 11:02:01;;;;;;;18.00;10.85;;;15.60;99.90;;;;;;5113589;28;20093;-73
2022/03/26 11:04:29;;;;;;;14.23;9.02;;;15.70;99.90;;;;;;5114048;28;20047;-73
2022/03/26 11:06:58;;;;;;;15.75;10.45;;;15.80;99.90;;;;;;5095259;28;20048;-73
2022/03/26 11:09:26;;;;;;;10.95;7.53;;;15.90;99.90;;;;;;5095626;28;20054;-73
2022/03/26 11:11:52;;;;;;;10.95;7.28;;;15.90;99.90;;;;;;5095643;28;20487;-74
2022/03/26 11:14:25;;;;;;;12.30;7.03;;;15.80;98.40;;;;;;5078263;28;20487;-73
2022/03/26 11:17:14;;;;;;;12.27;7.72;;;15.80;98.70;;;;;;5113667;28;20040;-73
2022/03/26 11:20:14;;;;;;;12.25;6.75;;;15.80;99.90;;;;;;5078519;28;20047;-73
2022/03/26 11:22:57;;;;;;;9.20;5.57;;;15.80;97.80;;;;;;5094772;28;20055;-73
2022/03/26 11:25:35;;;;;;;9.75;5.85;;;15.70;96.80;;;;;;5098736;28;20046;-73
2022/03/26 11:28:06;;;;;;;13.60;6.60;;;15.80;98.80;;;;;;5082139;28;20557;-74
2022/03/26 11:31:13;;;;;;;8.90;6.15;;;15.80;97.40;;;;;;5099559;28;20378;-74
2022/03/26 11:33:39;;;;;;;14.65;6.38;;;15.80;98.00;;;;;;5098685;28;20052;-74
2022/03/26 11:36:08;;;;;;;9.70;4.93;;;15.70;98.00;;;;;;5116969;28;20062;-73
2022/03/26 11:38:35;;;;;;;8.63;5.45;;;15.80;97.80;;;;;;5099503;28;20395;-73
2022/03/26 11:41:06;;;;;;;7.53;4.68;;;15.80;98.10;;;;;;5082389;28;20040;-73
2022/03/26 11:43:44;;;;;;;12.38;6.25;;;15.80;97.70;;;;;;5098627;28;20042;-73
2022/03/26 11:51:55;;;;;;;8.90;5.70;;;15.80;98.40;;;;;;5078869;28;20052;-73
2022/03/26 11:54:21;;;;;;;8.40;6.05;;;15.90;98.20;;;;;;5097098;28;20061;-72
2022/03/26 11:56:47;;;;;;;10.75;5.30;;;15.90;99.00;;;;;;5077946;28;20480;-72
2022/03/26 11:59:15;;;;;;;9.38;5.88;;;16.00;98.70;;;;;;5097379;28;20047;-73
2022/03/26 12:01:48;;;;;;;11.07;6.40;;;16.00;98.50;;;;;;5096897;28;20044;-73
2022/03/26 12:04:17;;;;;;;8.90;5.60;;;16.00;99.40;;;;;;5095899;28;20135;-73
2022/03/26 12:06:57;;;;;;;9.68;5.97;;;16.00;99.10;;;;;;5096808;28;20048;-73
2022/03/26 12:09:39;;;;;;;5.75;4.60;;;16.00;98.90;;;;;;5078673;28;20055;-73
2022/03/26 12:12:05;;;;;;;7.28;5.05;;;16.00;99.20;;;;;;5095876;28;20107;-75
2022/03/26 12:14:31;;;;;;;7.00;4.63;;;16.00;98.90;;;;;;5078383;28;20499;-74
2022/03/26 12:16:57;;;;;;;8.95;5.43;;;15.90;99.00;;;;;;5077739;28;20055;-74
2022/03/26 12:19:39;;;;;;;7.82;5.50;;;15.80;99.60;;;;;;5095990;28;20036;-74
2022/03/26 12:22:26;;;;;;;7.57;5.18;;;15.80;99.10;;;;;;5078081;28;20051;-73
2022/03/26 12:24:57;;;;;;;10.38;5.00;;;15.80;98.80;;;;;;5077532;28;20069;-73
2022/03/26 12:27:24;;;;;;;10.77;5.30;;;15.80;99.90;;;;;;5061549;28;20048;-74
2022/03/26 12:29:53;;;;;;;5.30;4.78;;;15.80;99.90;;;;;;5078016;28;20052;-74
2022/03/26 12:32:20;;;;;;;6.63;4.38;;;15.80;99.90;;;;;;5077306;28;20119;-73
2022/03/26 12:35:04;;;;;;;6.45;5.00;;;16.00;99.90;;;;;;5096244;28;20044;-73
2022/03/26 12:37:30;;;;;;;7.47;5.00;;;16.10;99.90;;;;;;5095379;28;20392;-73
2022/03/26 12:39:56;;;;;;;7.90;4.85;;;16.10;99.90;;;;;;5076923;28;20564;-73
2022/03/26 12:42:23;;;;;;;8.18;4.60;;;16.00;99.90;;;;;;5078217;28;20361;-73